Terminal Aerodrome Forecast
Issued by NWS

Home | Current Version | Previous Version | Text Only | Print | Product List | Glossary On
Versions: 1 2 3 4 5 6 7 8 9 10 11 12 13 14 15 16 17 18 19 20 21 22 23 24 25 26 27 28
000
FTUS43 KLSX 241211 AAA
TAFSUS
TAF AMD
KSUS 241211Z 2412/2512 19011KT P6SM SCT008 OVC035
      TEMPO 2412/2416 BKN008
     FM241600 11006KT P6SM OVC012
     FM242000 13007KT 3SM SHRA VCTS OVC009CB
     FM250100 16006KT P6SM OVC008
     FM250400 26015G28KT P6SM BKN015
     FM250600 27016G27KT P6SM BKN040=

USA.gov is the U.S. government's official web portal to all federal, state and local government web resources and services.